sensor_id;sensor_type;location;lat;lon;timestamp;temperature;humidity
42147;DHT22;27815;43.410;11.852;2022-11-20T00:01:58;9.40;79.40
42147;DHT22;27815;43.410;11.852;2022-11-20T00:06:03;9.40;79.50
42147;DHT22;27815;43.410;11.852;2022-11-20T00:10:06;9.30;79.50
42147;DHT22;27815;43.410;11.852;2022-11-20T00:14:09;9.30;79.50
42147;DHT22;27815;43.410;11.852;2022-11-20T00:18:13;9.40;79.60
42147;DHT22;27815;43.410;11.852;2022-11-20T00:22:16;9.40;79.60
42147;DHT22;27815;43.410;11.852;2022-11-20T00:26:21;9.30;79.70
42147;DHT22;27815;43.410;11.852;2022-11-20T00:30:24;9.30;79.70
42147;DHT22;27815;43.410;11.852;2022-11-20T00:34:27;9.30;79.80
42147;DHT22;27815;43.410;11.852;2022-11-20T00:38:33;9.40;79.80
42147;DHT22;27815;43.410;11.852;2022-11-20T00:42:36;9.40;79.80
42147;DHT22;27815;43.410;11.852;2022-11-20T00:46:39;9.40;79.80
42147;DHT22;27815;43.410;11.852;2022-11-20T00:50:42;9.40;79.90
42147;DHT22;27815;43.410;11.852;2022-11-20T00:54:45;9.40;79.90
42147;DHT22;27815;43.410;11.852;2022-11-20T00:58:48;9.40;80.00
42147;DHT22;27815;43.410;11.852;2022-11-20T01:02:51;9.50;80.10
42147;DHT22;27815;43.410;11.852;2022-11-20T01:06:54;9.40;80.00
42147;DHT22;27815;43.410;11.852;2022-11-20T01:11:03;9.40;80.10
42147;DHT22;27815;43.410;11.852;2022-11-20T01:15:06;9.40;80.20
42147;DHT22;27815;43.410;11.852;2022-11-20T01:19:12;9.40;80.00
42147;DHT22;27815;43.410;11.852;2022-11-20T01:23:19;9.40;80.10
42147;DHT22;27815;43.410;11.852;2022-11-20T01:27:22;9.40;80.00
42147;DHT22;27815;43.410;11.852;2022-11-20T01:31:33;9.40;80.10
42147;DHT22;27815;43.410;11.852;2022-11-20T01:35:36;9.30;80.20
42147;DHT22;27815;43.410;11.852;2022-11-20T01:39:39;9.30;80.30
42147;DHT22;27815;43.410;11.852;2022-11-20T01:43:42;9.30;80.30
42147;DHT22;27815;43.410;11.852;2022-11-20T01:47:46;9.30;80.40
42147;DHT22;27815;43.410;11.852;2022-11-20T01:51:54;9.40;80.40
42147;DHT22;27815;43.410;11.852;2022-11-20T01:56:00;9.40;80.40
42147;DHT22;27815;43.410;11.852;2022-11-20T02:00:08;9.50;80.30
42147;DHT22;27815;43.410;11.852;2022-11-20T02:04:15;9.50;80.30
42147;DHT22;27815;43.410;11.852;2022-11-20T02:08:20;9.50;80.20
42147;DHT22;27815;43.410;11.852;2022-11-20T02:12:24;9.50;80.20
42147;DHT22;27815;43.410;11.852;2022-11-20T02:16:47;9.50;80.20
42147;DHT22;27815;43.410;11.852;2022-11-20T02:20:57;9.50;80.20
42147;DHT22;27815;43.410;11.852;2022-11-20T02:25:02;9.50;80.20
42147;DHT22;27815;43.410;11.852;2022-11-20T02:29:07;9.40;80.20
42147;DHT22;27815;43.410;11.852;2022-11-20T02:33:10;9.40;80.30
42147;DHT22;27815;43.410;11.852;2022-11-20T02:37:13;9.50;80.30
42147;DHT22;27815;43.410;11.852;2022-11-20T02:41:16;9.40;80.30
42147;DHT22;27815;43.410;11.852;2022-11-20T02:45:21;9.40;80.40
42147;DHT22;27815;43.410;11.852;2022-11-20T02:49:25;9.40;80.40
42147;DHT22;27815;43.410;11.852;2022-11-20T02:53:28;9.50;80.40
42147;DHT22;27815;43.410;11.852;2022-11-20T02:57:31;9.50;80.40
42147;DHT22;27815;43.410;11.852;2022-11-20T03:01:34;9.50;80.30
42147;DHT22;27815;43.410;11.852;2022-11-20T03:05:37;9.50;80.30
42147;DHT22;27815;43.410;11.852;2022-11-20T03:09:39;9.50;80.30
42147;DHT22;27815;43.410;11.852;2022-11-20T03:13:42;9.50;80.30
42147;DHT22;27815;43.410;11.852;2022-11-20T03:17:45;9.50;80.20
42147;DHT22;27815;43.410;11.852;2022-11-20T03:21:48;9.50;80.20
42147;DHT22;27815;43.410;11.852;2022-11-20T03:25:51;9.50;80.30
42147;DHT22;27815;43.410;11.852;2022-11-20T03:29:54;9.50;80.30
42147;DHT22;27815;43.410;11.852;2022-11-20T03:33:58;9.50;80.30
42147;DHT22;27815;43.410;11.852;2022-11-20T03:38:02;9.50;80.30
42147;DHT22;27815;43.410;11.852;2022-11-20T03:42:05;9.50;80.30
42147;DHT22;27815;43.410;11.852;2022-11-20T03:46:29;9.50;80.30
42147;DHT22;27815;43.410;11.852;2022-11-20T03:50:32;9.50;80.30
42147;DHT22;27815;43.410;11.852;2022-11-20T03:54:36;9.50;80.20
42147;DHT22;27815;43.410;11.852;2022-11-20T03:58:40;9.50;80.20
42147;DHT22;27815;43.410;11.852;2022-11-20T04:02:45;9.50;80.20
42147;DHT22;27815;43.410;11.852;2022-11-20T04:06:50;9.50;80.20
42147;DHT22;27815;43.410;11.852;2022-11-20T04:10:54;9.50;80.30
42147;DHT22;27815;43.410;11.852;2022-11-20T04:14:58;9.50;80.20
42147;DHT22;27815;43.410;11.852;2022-11-20T04:19:03;9.50;80.20
42147;DHT22;27815;43.410;11.852;2022-11-20T04:23:07;9.50;80.20
42147;DHT22;27815;43.410;11.852;2022-11-20T04:27:11;9.50;80.20
42147;DHT22;27815;43.410;11.852;2022-11-20T04:31:16;9.40;80.20
42147;DHT22;27815;43.410;11.852;2022-11-20T04:35:20;9.40;80.30
42147;DHT22;27815;43.410;11.852;2022-11-20T04:39:25;9.30;80.30
42147;DHT22;27815;43.410;11.852;2022-11-20T04:43:29;9.30;80.40
42147;DHT22;27815;43.410;11.852;2022-11-20T04:47:35;9.30;80.30
42147;DHT22;27815;43.410;11.852;2022-11-20T04:51:40;9.30;80.20
42147;DHT22;27815;43.410;11.852;2022-11-20T04:55:44;9.30;80.20
42147;DHT22;27815;43.410;11.852;2022-11-20T04:59:49;9.30;80.10
42147;DHT22;27815;43.410;11.852;2022-11-20T05:03:53;9.20;80.20
42147;DHT22;27815;43.410;11.852;2022-11-20T05:07:57;9.10;80.20
42147;DHT22;27815;43.410;11.852;2022-11-20T05:12:01;9.00;80.30
42147;DHT22;27815;43.410;11.852;2022-11-20T05:16:08;9.00;80.40
42147;DHT22;27815;43.410;11.852;2022-11-20T05:20:13;9.00;80.30
42147;DHT22;27815;43.410;11.852;2022-11-20T05:24:17;8.90;80.40
42147;DHT22;27815;43.410;11.852;2022-11-20T05:28:23;8.90;80.20
42147;DHT22;27815;43.410;11.852;2022-11-20T05:32:29;8.80;80.20
42147;DHT22;27815;43.410;11.852;2022-11-20T05:36:37;8.80;80.20
42147;DHT22;27815;43.410;11.852;2022-11-20T05:40:41;8.70;80.30
42147;DHT22;27815;43.410;11.852;2022-11-20T05:44:48;8.60;80.40
42147;DHT22;27815;43.410;11.852;2022-11-20T05:48:50;8.60;80.40
42147;DHT22;27815;43.410;11.852;2022-11-20T05:53:00;8.50;80.40
42147;DHT22;27815;43.410;11.852;2022-11-20T05:57:06;8.50;80.40
42147;DHT22;27815;43.410;11.852;2022-11-20T06:01:12;8.50;80.40
42147;DHT22;27815;43.410;11.852;2022-11-20T06:05:15;8.40;80.40
42147;DHT22;27815;43.410;11.852;2022-11-20T06:09:19;8.40;80.40
42147;DHT22;27815;43.410;11.852;2022-11-20T06:13:22;8.40;80.40
42147;DHT22;27815;43.410;11.852;2022-11-20T06:17:27;8.40;80.50
42147;DHT22;27815;43.410;11.852;2022-11-20T06:21:30;8.40;80.50
42147;DHT22;27815;43.410;11.852;2022-11-20T06:30:57;8.50;80.50
42147;DHT22;27815;43.410;11.852;2022-11-20T06:35:00;8.50;80.40
42147;DHT22;27815;43.410;11.852;2022-11-20T06:39:03;8.50;80.40
42147;DHT22;27815;43.410;11.852;2022-11-20T06:43:06;8.50;80.50
42147;DHT22;27815;43.410;11.852;2022-11-20T06:47:10;8.50;80.70
42147;DHT22;27815;43.410;11.852;2022-11-20T06:51:14;8.60;80.60
42147;DHT22;27815;43.410;11.852;2022-11-20T06:55:17;8.60;80.60
42147;DHT22;27815;43.410;11.852;2022-11-20T06:59:20;8.50;80.70
42147;DHT22;27815;43.410;11.852;2022-11-20T07:03:25;8.50;80.80
42147;DHT22;27815;43.410;11.852;2022-11-20T07:07:35;8.50;80.80
42147;DHT22;27815;43.410;11.852;2022-11-20T07:11:49;8.50;80.80
42147;DHT22;27815;43.410;11.852;2022-11-20T07:15:53;8.60;80.80
42147;DHT22;27815;43.410;11.852;2022-11-20T07:19:59;8.60;80.70
42147;DHT22;27815;43.410;11.852;2022-11-20T07:24:04;8.60;80.70
42147;DHT22;27815;43.410;11.852;2022-11-20T07:28:07;8.70;80.90
42147;DHT22;27815;43.410;11.852;2022-11-20T07:32:10;8.80;80.90
42147;DHT22;27815;43.410;11.852;2022-11-20T07:36:13;9.00;81.00
42147;DHT22;27815;43.410;11.852;2022-11-20T07:40:16;9.20;80.90
42147;DHT22;27815;43.410;11.852;2022-11-20T07:44:28;9.50;80.90
42147;DHT22;27815;43.410;11.852;2022-11-20T07:48:31;9.60;80.80
42147;DHT22;27815;43.410;11.852;2022-11-20T07:52:34;9.70;81.00
42147;DHT22;27815;43.410;11.852;2022-11-20T07:56:37;9.90;80.90
42147;DHT22;27815;43.410;11.852;2022-11-20T08:00:41;10.10;80.80
42147;DHT22;27815;43.410;11.852;2022-11-20T08:04:44;10.30;80.40
42147;DHT22;27815;43.410;11.852;2022-11-20T08:08:47;10.50;80.10
42147;DHT22;27815;43.410;11.852;2022-11-20T08:12:51;10.60;79.70
42147;DHT22;27815;43.410;11.852;2022-11-20T08:17:13;10.90;79.30
42147;DHT22;27815;43.410;11.852;2022-11-20T08:21:16;11.00;78.80
42147;DHT22;27815;43.410;11.852;2022-11-20T08:25:19;11.10;78.30
42147;DHT22;27815;43.410;11.852;2022-11-20T08:29:22;11.30;77.90
42147;DHT22;27815;43.410;11.852;2022-11-20T08:33:26;11.40;77.40
42147;DHT22;27815;43.410;11.852;2022-11-20T08:37:30;11.50;76.90
42147;DHT22;27815;43.410;11.852;2022-11-20T08:41:33;11.60;76.40
42147;DHT22;27815;43.410;11.852;2022-11-20T08:45:36;11.80;76.20
42147;DHT22;27815;43.410;11.852;2022-11-20T08:49:38;11.90;75.60
42147;DHT22;27815;43.410;11.852;2022-11-20T08:53:42;12.00;75.30
42147;DHT22;27815;43.410;11.852;2022-11-20T08:57:45;12.10;74.80
42147;DHT22;27815;43.410;11.852;2022-11-20T09:01:52;12.20;74.80
42147;DHT22;27815;43.410;11.852;2022-11-20T09:06:00;12.30;74.30
42147;DHT22;27815;43.410;11.852;2022-11-20T09:10:03;12.30;73.80
42147;DHT22;27815;43.410;11.852;2022-11-20T09:14:25;12.50;73.90
42147;DHT22;27815;43.410;11.852;2022-11-20T09:18:34;12.50;73.60
42147;DHT22;27815;43.410;11.852;2022-11-20T09:22:40;12.50;73.40
42147;DHT22;27815;43.410;11.852;2022-11-20T09:26:43;12.70;73.10
42147;DHT22;27815;43.410;11.852;2022-11-20T09:30:46;12.90;72.70
42147;DHT22;27815;43.410;11.852;2022-11-20T09:34:50;13.10;72.20
42147;DHT22;27815;43.410;11.852;2022-11-20T09:38:52;13.10;71.40
42147;DHT22;27815;43.410;11.852;2022-11-20T09:56:16;13.70;69.50
42147;DHT22;27815;43.410;11.852;2022-11-20T10:00:24;13.80;69.30
42147;DHT22;27815;43.410;11.852;2022-11-20T10:04:29;14.00;68.70
42147;DHT22;27815;43.410;11.852;2022-11-20T10:09:04;14.10;68.20
42147;DHT22;27815;43.410;11.852;2022-11-20T10:13:20;14.20;67.60
42147;DHT22;27815;43.410;11.852;2022-11-20T10:26:17;14.50;64.50
42147;DHT22;27815;43.410;11.852;2022-11-20T10:30:24;14.50;61.60
42147;DHT22;27815;43.410;11.852;2022-11-20T10:38:38;14.70;61.60
42147;DHT22;27815;43.410;11.852;2022-11-20T10:42:43;14.90;60.30
42147;DHT22;27815;43.410;11.852;2022-11-20T10:46:49;15.00;60.50
42147;DHT22;27815;43.410;11.852;2022-11-20T11:03:37;15.20;58.20
42147;DHT22;27815;43.410;11.852;2022-11-20T11:07:41;15.20;57.10
42147;DHT22;27815;43.410;11.852;2022-11-20T11:11:44;15.10;55.70
42147;DHT22;27815;43.410;11.852;2022-11-20T11:15:47;15.10;55.90
42147;DHT22;27815;43.410;11.852;2022-11-20T11:20:17;15.00;54.90
42147;DHT22;27815;43.410;11.852;2022-11-20T11:24:26;14.90;53.90
42147;DHT22;27815;43.410;11.852;2022-11-20T11:28:56;15.00;54.60
42147;DHT22;27815;43.410;11.852;2022-11-20T11:33:17;15.10;54.30
42147;DHT22;27815;43.410;11.852;2022-11-20T11:37:21;15.10;52.00
42147;DHT22;27815;43.410;11.852;2022-11-20T11:41:28;15.10;53.30
42147;DHT22;27815;43.410;11.852;2022-11-20T11:45:34;15.00;53.50
42147;DHT22;27815;43.410;11.852;2022-11-20T11:49:40;15.00;53.30
42147;DHT22;27815;43.410;11.852;2022-11-20T11:53:43;15.10;53.70
42147;DHT22;27815;43.410;11.852;2022-11-20T11:57:59;15.10;53.30
42147;DHT22;27815;43.410;11.852;2022-11-20T12:02:10;15.20;53.30
42147;DHT22;27815;43.410;11.852;2022-11-20T12:06:17;15.10;53.20
42147;DHT22;27815;43.410;11.852;2022-11-20T12:14:39;14.60;52.80
42147;DHT22;27815;43.410;11.852;2022-11-20T12:18:44;14.50;52.70
42147;DHT22;27815;43.410;11.852;2022-11-20T12:28:02;14.60;52.00
42147;DHT22;27815;43.410;11.852;2022-11-20T12:40:44;14.50;52.20
42147;DHT22;27815;43.410;11.852;2022-11-20T12:49:30;14.40;54.10
42147;DHT22;27815;43.410;11.852;2022-11-20T12:58:41;14.20;54.60
42147;DHT22;27815;43.410;11.852;2022-11-20T13:03:17;14.10;54.00
42147;DHT22;27815;43.410;11.852;2022-11-20T13:07:26;14.10;54.30
42147;DHT22;27815;43.410;11.852;2022-11-20T13:12:22;14.30;53.20
42147;DHT22;27815;43.410;11.852;2022-11-20T13:16:17;14.40;52.10
42147;DHT22;27815;43.410;11.852;2022-11-20T13:20:22;14.30;52.60
42147;DHT22;27815;43.410;11.852;2022-11-20T13:24:30;14.50;53.50
42147;DHT22;27815;43.410;11.852;2022-11-20T13:28:33;14.50;52.60
42147;DHT22;27815;43.410;11.852;2022-11-20T13:32:47;14.40;52.70
42147;DHT22;27815;43.410;11.852;2022-11-20T13:36:52;14.30;53.40
42147;DHT22;27815;43.410;11.852;2022-11-20T13:41:00;14.20;54.00
42147;DHT22;27815;43.410;11.852;2022-11-20T13:45:32;14.10;54.20
42147;DHT22;27815;43.410;11.852;2022-11-20T13:49:39;14.00;55.60
42147;DHT22;27815;43.410;11.852;2022-11-20T13:58:24;13.80;53.60
42147;DHT22;27815;43.410;11.852;2022-11-20T14:02:34;13.90;52.80
42147;DHT22;27815;43.410;11.852;2022-11-20T14:06:45;13.90;53.10
42147;DHT22;27815;43.410;11.852;2022-11-20T14:10:49;14.10;52.70
42147;DHT22;27815;43.410;11.852;2022-11-20T14:14:53;14.10;53.00
42147;DHT22;27815;43.410;11.852;2022-11-20T14:23:27;14.30;52.60
42147;DHT22;27815;43.410;11.852;2022-11-20T14:27:41;14.40;52.30
42147;DHT22;27815;43.410;11.852;2022-11-20T14:31:45;14.50;51.80
42147;DHT22;27815;43.410;11.852;2022-11-20T14:35:56;14.40;52.40
42147;DHT22;27815;43.410;11.852;2022-11-20T14:40:00;14.50;52.30
42147;DHT22;27815;43.410;11.852;2022-11-20T14:44:04;14.40;52.50
42147;DHT22;27815;43.410;11.852;2022-11-20T14:48:09;14.40;52.80
42147;DHT22;27815;43.410;11.852;2022-11-20T14:52:31;14.40;52.60
42147;DHT22;27815;43.410;11.852;2022-11-20T14:56:34;14.30;53.10
42147;DHT22;27815;43.410;11.852;2022-11-20T15:00:37;14.10;53.70
42147;DHT22;27815;43.410;11.852;2022-11-20T15:04:51;13.90;54.20
42147;DHT22;27815;43.410;11.852;2022-11-20T15:08:58;13.90;54.80
42147;DHT22;27815;43.410;11.852;2022-11-20T15:13:05;13.70;55.40
42147;DHT22;27815;43.410;11.852;2022-11-20T15:17:14;13.50;55.90
42147;DHT22;27815;43.410;11.852;2022-11-20T15:21:19;13.30;56.10
42147;DHT22;27815;43.410;11.852;2022-11-20T15:25:23;13.10;56.20
42147;DHT22;27815;43.410;11.852;2022-11-20T15:29:27;13.00;57.20
42147;DHT22;27815;43.410;11.852;2022-11-20T15:33:31;12.80;57.70
42147;DHT22;27815;43.410;11.852;2022-11-20T15:37:35;12.50;57.90
42147;DHT22;27815;43.410;11.852;2022-11-20T15:41:38;12.40;58.30
42147;DHT22;27815;43.410;11.852;2022-11-20T15:45:46;12.20;58.50
42147;DHT22;27815;43.410;11.852;2022-11-20T15:49:50;12.10;58.70
42147;DHT22;27815;43.410;11.852;2022-11-20T15:53:54;12.00;58.90
42147;DHT22;27815;43.410;11.852;2022-11-20T15:58:00;11.80;58.90
42147;DHT22;27815;43.410;11.852;2022-11-20T16:02:04;11.60;59.40
42147;DHT22;27815;43.410;11.852;2022-11-20T16:06:08;11.50;59.60
42147;DHT22;27815;43.410;11.852;2022-11-20T16:10:10;11.40;59.80
42147;DHT22;27815;43.410;11.852;2022-11-20T16:14:13;11.40;59.90
42147;DHT22;27815;43.410;11.852;2022-11-20T16:18:35;11.30;59.90
42147;DHT22;27815;43.410;11.852;2022-11-20T16:22:37;11.20;60.00
42147;DHT22;27815;43.410;11.852;2022-11-20T16:26:41;11.10;60.20
42147;DHT22;27815;43.410;11.852;2022-11-20T16:30:44;11.10;60.20
42147;DHT22;27815;43.410;11.852;2022-11-20T16:34:47;11.00;60.30
42147;DHT22;27815;43.410;11.852;2022-11-20T16:38:56;11.00;60.50
42147;DHT22;27815;43.410;11.852;2022-11-20T16:43:18;10.90;60.70
42147;DHT22;27815;43.410;11.852;2022-11-20T16:47:20;10.90;60.70
42147;DHT22;27815;43.410;11.852;2022-11-20T16:51:24;10.80;60.90
42147;DHT22;27815;43.410;11.852;2022-11-20T16:55:27;10.80;61.00
42147;DHT22;27815;43.410;11.852;2022-11-20T16:59:30;10.70;61.10
42147;DHT22;27815;43.410;11.852;2022-11-20T17:03:33;10.60;61.20
42147;DHT22;27815;43.410;11.852;2022-11-20T17:07:36;10.60;61.20
42147;DHT22;27815;43.410;11.852;2022-11-20T17:11:40;10.60;61.30
42147;DHT22;27815;43.410;11.852;2022-11-20T17:15:43;10.60;61.40
42147;DHT22;27815;43.410;11.852;2022-11-20T17:19:49;10.50;61.40
42147;DHT22;27815;43.410;11.852;2022-11-20T17:23:52;10.50;61.50
42147;DHT22;27815;43.410;11.852;2022-11-20T17:27:55;10.50;61.60
42147;DHT22;27815;43.410;11.852;2022-11-20T17:31:57;10.50;61.70
42147;DHT22;27815;43.410;11.852;2022-11-20T17:36:00;10.40;61.80
42147;DHT22;27815;43.410;11.852;2022-11-20T17:40:03;10.30;61.90
42147;DHT22;27815;43.410;11.852;2022-11-20T17:44:09;10.30;62.00
42147;DHT22;27815;43.410;11.852;2022-11-20T17:48:13;10.20;62.10
42147;DHT22;27815;43.410;11.852;2022-11-20T17:52:16;10.10;62.30
42147;DHT22;27815;43.410;11.852;2022-11-20T17:56:19;10.00;62.60
42147;DHT22;27815;43.410;11.852;2022-11-20T18:00:40;10.00;62.80
42147;DHT22;27815;43.410;11.852;2022-11-20T18:04:55;10.00;62.80
42147;DHT22;27815;43.410;11.852;2022-11-20T18:09:08;10.00;62.90
42147;DHT22;27815;43.410;11.852;2022-11-20T18:13:11;10.00;63.00
42147;DHT22;27815;43.410;11.852;2022-11-20T18:17:14;10.00;63.00
42147;DHT22;27815;43.410;11.852;2022-11-20T18:21:17;9.90;63.10
42147;DHT22;27815;43.410;11.852;2022-11-20T18:25:22;9.90;63.20
42147;DHT22;27815;43.410;11.852;2022-11-20T18:29:25;9.80;63.30
42147;DHT22;27815;43.410;11.852;2022-11-20T18:33:29;9.80;63.40
42147;DHT22;27815;43.410;11.852;2022-11-20T18:37:32;9.80;63.50
42147;DHT22;27815;43.410;11.852;2022-11-20T18:41:35;9.80;63.50
42147;DHT22;27815;43.410;11.852;2022-11-20T18:46:03;9.80;63.60
42147;DHT22;27815;43.410;11.852;2022-11-20T18:50:07;9.70;63.60
42147;DHT22;27815;43.410;11.852;2022-11-20T18:54:12;9.70;63.70
42147;DHT22;27815;43.410;11.852;2022-11-20T18:58:15;9.70;63.70
42147;DHT22;27815;43.410;11.852;2022-11-20T19:02:19;9.70;63.80
42147;DHT22;27815;43.410;11.852;2022-11-20T19:06:22;9.70;63.80
42147;DHT22;27815;43.410;11.852;2022-11-20T19:10:25;9.80;63.70
42147;DHT22;27815;43.410;11.852;2022-11-20T19:14:28;9.80;63.60
42147;DHT22;27815;43.410;11.852;2022-11-20T19:18:31;9.80;63.50
42147;DHT22;27815;43.410;11.852;2022-11-20T19:22:34;9.80;63.40
42147;DHT22;27815;43.410;11.852;2022-11-20T19:26:37;9.80;63.40
42147;DHT22;27815;43.410;11.852;2022-11-20T19:30:40;9.90;63.30
42147;DHT22;27815;43.410;11.852;2022-11-20T19:34:45;9.90;63.20
42147;DHT22;27815;43.410;11.852;2022-11-20T19:38:49;9.80;63.30
42147;DHT22;27815;43.410;11.852;2022-11-20T19:42:52;9.50;63.70
42147;DHT22;27815;43.410;11.852;2022-11-20T19:46:55;9.10;64.20
42147;DHT22;27815;43.410;11.852;2022-11-20T19:51:17;8.90;64.60
42147;DHT22;27815;43.410;11.852;2022-11-20T19:55:20;8.60;65.30
42147;DHT22;27815;43.410;11.852;2022-11-20T19:59:25;8.40;65.50
42147;DHT22;27815;43.410;11.852;2022-11-20T20:03:28;8.30;65.70
42147;DHT22;27815;43.410;11.852;2022-11-20T20:07:31;8.20;65.80
42147;DHT22;27815;43.410;11.852;2022-11-20T20:11:35;8.10;66.10
42147;DHT22;27815;43.410;11.852;2022-11-20T20:15:41;8.10;66.30
42147;DHT22;27815;43.410;11.852;2022-11-20T20:19:44;8.00;66.70
42147;DHT22;27815;43.410;11.852;2022-11-20T20:23:50;8.00;66.60
42147;DHT22;27815;43.410;11.852;2022-11-20T20:27:53;8.30;66.70
42147;DHT22;27815;43.410;11.852;2022-11-20T20:31:56;8.40;66.50
42147;DHT22;27815;43.410;11.852;2022-11-20T20:35:59;8.20;66.70
42147;DHT22;27815;43.410;11.852;2022-11-20T20:40:02;8.20;66.80
42147;DHT22;27815;43.410;11.852;2022-11-20T20:44:05;8.30;66.70
42147;DHT22;27815;43.410;11.852;2022-11-20T20:48:26;8.50;66.50
42147;DHT22;27815;43.410;11.852;2022-11-20T20:52:29;8.60;66.20
42147;DHT22;27815;43.410;11.852;2022-11-20T20:56:32;8.80;65.70
42147;DHT22;27815;43.410;11.852;2022-11-20T21:00:35;9.00;65.20
42147;DHT22;27815;43.410;11.852;2022-11-20T21:04:39;9.20;64.70
42147;DHT22;27815;43.410;11.852;2022-11-20T21:08:41;9.30;64.80
42147;DHT22;27815;43.410;11.852;2022-11-20T21:12:46;9.00;65.40
42147;DHT22;27815;43.410;11.852;2022-11-20T21:16:49;8.80;66.00
42147;DHT22;27815;43.410;11.852;2022-11-20T21:20:52;8.50;66.30
42147;DHT22;27815;43.410;11.852;2022-11-20T21:25:15;8.50;66.50
42147;DHT22;27815;43.410;11.852;2022-11-20T21:29:18;8.40;66.60
42147;DHT22;27815;43.410;11.852;2022-11-20T21:33:22;8.20;66.90
42147;DHT22;27815;43.410;11.852;2022-11-20T21:37:24;8.00;67.10
42147;DHT22;27815;43.410;11.852;2022-11-20T21:41:29;8.00;67.10
42147;DHT22;27815;43.410;11.852;2022-11-20T21:45:32;7.90;67.20
42147;DHT22;27815;43.410;11.852;2022-11-20T21:49:34;7.80;67.10
42147;DHT22;27815;43.410;11.852;2022-11-20T21:53:38;7.60;67.50
42147;DHT22;27815;43.410;11.852;2022-11-20T21:57:41;7.40;67.90
42147;DHT22;27815;43.410;11.852;2022-11-20T22:01:44;7.20;68.50
42147;DHT22;27815;43.410;11.852;2022-11-20T22:05:57;7.20;68.70
42147;DHT22;27815;43.410;11.852;2022-11-20T22:10:00;7.10;69.10
42147;DHT22;27815;43.410;11.852;2022-11-20T22:14:03;7.00;69.00
42147;DHT22;27815;43.410;11.852;2022-11-20T22:18:25;6.90;69.10
42147;DHT22;27815;43.410;11.852;2022-11-20T22:22:28;6.70;69.40
42147;DHT22;27815;43.410;11.852;2022-11-20T22:26:34;6.60;69.70
42147;DHT22;27815;43.410;11.852;2022-11-20T22:30:42;6.50;69.90
42147;DHT22;27815;43.410;11.852;2022-11-20T22:34:44;6.40;69.90
42147;DHT22;27815;43.410;11.852;2022-11-20T22:38:47;6.30;69.90
42147;DHT22;27815;43.410;11.852;2022-11-20T22:42:50;6.30;70.20
42147;DHT22;27815;43.410;11.852;2022-11-20T22:46:52;6.30;70.20
42147;DHT22;27815;43.410;11.852;2022-11-20T22:51:03;6.20;70.20
42147;DHT22;27815;43.410;11.852;2022-11-20T22:55:07;6.10;70.50
42147;DHT22;27815;43.410;11.852;2022-11-20T22:59:16;6.00;70.60
42147;DHT22;27815;43.410;11.852;2022-11-20T23:03:21;6.00;71.20
42147;DHT22;27815;43.410;11.852;2022-11-20T23:07:24;6.00;71.40
42147;DHT22;27815;43.410;11.852;2022-11-20T23:11:29;6.00;71.30
42147;DHT22;27815;43.410;11.852;2022-11-20T23:15:32;6.00;71.50
42147;DHT22;27815;43.410;11.852;2022-11-20T23:19:36;6.00;71.40
42147;DHT22;27815;43.410;11.852;2022-11-20T23:23:39;6.00;71.30
42147;DHT22;27815;43.410;11.852;2022-11-20T23:27:42;6.00;71.50
42147;DHT22;27815;43.410;11.852;2022-11-20T23:31:45;6.00;71.60
42147;DHT22;27815;43.410;11.852;2022-11-20T23:35:48;6.00;71.60
42147;DHT22;27815;43.410;11.852;2022-11-20T23:39:51;6.10;71.60
42147;DHT22;27815;43.410;11.852;2022-11-20T23:43:54;6.10;71.70
42147;DHT22;27815;43.410;11.852;2022-11-20T23:47:57;6.20;71.80
42147;DHT22;27815;43.410;11.852;2022-11-20T23:52:00;6.20;71.80
42147;DHT22;27815;43.410;11.852;2022-11-20T23:56:04;6.20;71.80
